PWSweather.com
Personal Weather Stations
Station Observations
SBERGENWX
Wood Ridge, NJ 07075

Wood Ridge, NJ 07075

Lat: 40.851667, Lon: -74.088131

Elevation: 177

Station Type: Davis Vantage Vue

http://201weather.com/

Latest ConditionsUpdated 9:00:01 AM EST Tuesday, Dec 18, 2018
Currently Today's Max Today's Min Today's Average
Temperature 30.5°F-0.8°C 38.6°F3.7°C 29.6°F-1.3°C 33.3°F0.7°C
Dew Point 16.2°F-8.8°C 25.0°F-3.9°C 16.2°F-8.8°C 19.3°F-7.1°C
Winds 3.5 mph NW5.6 kmh NW 5.8 mph -9.3 kmh - - 3.1 mph 5.0 kmh
Wind Gusts 5.8 mph9.3 kmh 15.0 mph24.1 kmh - -
Humidity 55% 60% 52% 56%
Pressure 30.00 in1015.9 mb 30.00 in1015.9 mb 29.77 in1008.1 mb -
Hour Temp Dew Point Humidity Winds Wind Gusts Pressure Precip Precip Rate Daily Precip Total
09:00 AM 30.5°F-0.8°C 16.2°F-8.8°C 55% 3.5 mph NW5.6 kmh NW 5.8 mph9.3 kmh 30.00 in1015.9 mb - 0.00 in0.0 mm 0.00 in0.0 mm
08:45 AM 30.6°F-0.8°C 16.8°F-8.4°C 56% 3.5 mph NW5.6 kmh NW 6.9 mph11.1 kmh 30.00 in1015.9 mb - 0.00 in0.0 mm 0.00 in0.0 mm
08:30 AM 30.2°F-1.0°C 16.8°F-8.4°C 57% 2.3 mph NW3.7 kmh NW 3.5 mph5.6 kmh 30.00 in1015.9 mb - 0.00 in0.0 mm 0.00 in0.0 mm
08:15 AM 30.2°F-1.0°C 16.8°F-8.4°C 57% 3.5 mph NW5.6 kmh NW 11.5 mph18.5 kmh 29.98 in1015.2 mb - 0.00 in0.0 mm 0.00 in0.0 mm
08:00 AM 29.9°F-1.2°C 16.9°F-8.4°C 58% 2.3 mph N3.7 kmh N 5.8 mph9.3 kmh 29.96 in1014.6 mb - 0.00 in0.0 mm 0.00 in0.0 mm
07:45 AM 29.6°F-1.3°C 17.0°F-8.3°C 59% 4.6 mph NW7.4 kmh NW 11.5 mph18.5 kmh 29.95 in1014.2 mb - 0.00 in0.0 mm 0.00 in0.0 mm
07:30 AM 29.7°F-1.3°C 17.5°F-8.1°C 60% 2.3 mph WNW3.7 kmh WNW 4.6 mph7.4 kmh 29.95 in1014.2 mb - 0.00 in0.0 mm 0.00 in0.0 mm
07:15 AM 29.9°F-1.2°C 17.3°F-8.2°C 59% 4.6 mph NW7.4 kmh NW 10.4 mph16.7 kmh 29.94 in1013.9 mb - 0.00 in0.0 mm 0.00 in0.0 mm
07:00 AM 30.2°F-1.0°C 16.8°F-8.4°C 57% 3.5 mph NW5.6 kmh NW 6.9 mph11.1 kmh 29.93 in1013.5 mb - 0.00 in0.0 mm 0.00 in0.0 mm
06:45 AM 30.6°F-0.8°C 16.7°F-8.5°C 56% 4.6 mph NW7.4 kmh NW 10.4 mph16.7 kmh 29.93 in1013.5 mb - 0.00 in0.0 mm 0.00 in0.0 mm
06:30 AM 30.8°F-0.7°C 16.9°F-8.4°C 56% 4.6 mph NW7.4 kmh NW 5.8 mph9.3 kmh 29.93 in1013.5 mb - 0.00 in0.0 mm 0.00 in0.0 mm
06:15 AM 31.1°F-0.5°C 17.6°F-8.0°C 57% 2.3 mph NNW3.7 kmh NNW 5.8 mph9.3 kmh 29.92 in1013.2 mb - 0.00 in0.0 mm 0.00 in0.0 mm
06:00 AM 31.4°F-0.3°C 17.5°F-8.1°C 56% 3.5 mph NW5.6 kmh NW 11.5 mph18.5 kmh 29.92 in1013.2 mb - 0.00 in0.0 mm 0.00 in0.0 mm
05:45 AM 31.5°F-0.3°C 18.0°F-7.8°C 57% 2.3 mph NNW3.7 kmh NNW 5.8 mph9.3 kmh 29.92 in1013.2 mb - 0.00 in0.0 mm 0.00 in0.0 mm
05:30 AM 31.6°F-0.2°C 18.1°F-7.7°C 57% 2.3 mph WNW3.7 kmh WNW 2.3 mph3.7 kmh 29.90 in1012.5 mb - 0.00 in0.0 mm 0.00 in0.0 mm
05:15 AM 31.7°F-0.2°C 17.4°F-8.1°C 55% 2.3 mph NW3.7 kmh NW 4.6 mph7.4 kmh 29.90 in1012.5 mb - 0.00 in0.0 mm 0.00 in0.0 mm
05:00 AM 31.9°F-0.1°C 17.5°F-8.1°C 55% 1.2 mph NW1.9 kmh NW 4.6 mph7.4 kmh 29.89 in1012.2 mb - 0.00 in0.0 mm 0.00 in0.0 mm
04:45 AM 32.4°F0.2°C 17.6°F-8.0°C 54% 2.3 mph NNW3.7 kmh NNW 5.8 mph9.3 kmh 29.88 in1011.9 mb - 0.00 in0.0 mm 0.00 in0.0 mm
04:30 AM 32.6°F0.3°C 18.2°F-7.7°C 55% 2.3 mph NW3.7 kmh NW 8.1 mph13.0 kmh 29.88 in1011.9 mb - 0.00 in0.0 mm 0.00 in0.0 mm
04:15 AM 33.1°F0.6°C 18.2°F-7.7°C 54% 3.5 mph NW5.6 kmh NW 15.0 mph24.1 kmh 29.86 in1011.2 mb - 0.00 in0.0 mm 0.00 in0.0 mm
04:00 AM 33.5°F0.8°C 18.6°F-7.4°C 54% 4.6 mph NW7.4 kmh NW 6.9 mph11.1 kmh 29.86 in1011.2 mb - 0.00 in0.0 mm 0.00 in0.0 mm
03:45 AM 34.1°F1.2°C 18.7°F-7.4°C 53% 5.8 mph NW9.3 kmh NW 10.4 mph16.7 kmh 29.84 in1010.5 mb - 0.00 in0.0 mm 0.00 in0.0 mm
03:30 AM 34.3°F1.3°C 21.1°F-6.1°C 58% 1.2 mph NNW1.9 kmh NNW 1.2 mph1.9 kmh 29.84 in1010.5 mb - 0.00 in0.0 mm 0.00 in0.0 mm
03:15 AM 34.5°F1.4°C 21.2°F-6.0°C 58% 2.3 mph NNW3.7 kmh NNW 8.1 mph13.0 kmh 29.82 in1009.8 mb - 0.00 in0.0 mm 0.00 in0.0 mm
03:00 AM 34.9°F1.6°C 20.8°F-6.2°C 56% 2.3 mph NW3.7 kmh NW 5.8 mph9.3 kmh 29.82 in1009.8 mb - 0.00 in0.0 mm 0.00 in0.0 mm
02:45 AM 35.1°F1.7°C 21.0°F-6.1°C 56% 1.2 mph W1.9 kmh W 3.5 mph5.6 kmh 29.82 in1009.8 mb - 0.00 in0.0 mm 0.00 in0.0 mm
02:30 AM 35.3°F1.8°C 21.6°F-5.8°C 57% 1.2 mph W1.9 kmh W 3.5 mph5.6 kmh 29.81 in1009.5 mb - 0.00 in0.0 mm 0.00 in0.0 mm
02:15 AM 35.7°F2.1°C 21.1°F-6.1°C 55% 3.5 mph NW5.6 kmh NW 11.5 mph18.5 kmh 29.81 in1009.5 mb - 0.00 in0.0 mm 0.00 in0.0 mm
02:00 AM 36.1°F2.3°C 20.6°F-6.3°C 53% 4.6 mph NW7.4 kmh NW 6.9 mph11.1 kmh 29.80 in1009.1 mb - 0.00 in0.0 mm 0.00 in0.0 mm
01:45 AM 36.3°F2.4°C 21.7°F-5.7°C 55% 1.2 mph W1.9 kmh W 4.6 mph7.4 kmh 29.80 in1009.1 mb - 0.00 in0.0 mm 0.00 in0.0 mm
01:30 AM 36.5°F2.5°C 21.4°F-5.9°C 54% 3.5 mph N5.6 kmh N 3.5 mph5.6 kmh 29.79 in1008.8 mb - 0.00 in0.0 mm 0.00 in0.0 mm
01:15 AM 36.7°F2.6°C 21.2°F-6.0°C 53% 2.3 mph NW3.7 kmh NW 8.1 mph13.0 kmh 29.79 in1008.8 mb - 0.00 in0.0 mm 0.00 in0.0 mm
01:00 AM 37.2°F2.9°C 21.2°F-6.0°C 52% 4.6 mph NNW7.4 kmh NNW 13.8 mph22.2 kmh 29.79 in1008.8 mb - 0.00 in0.0 mm 0.00 in0.0 mm
12:45 AM 37.8°F3.2°C 23.1°F-4.9°C 55% 3.5 mph NW5.6 kmh NW 8.1 mph13.0 kmh 29.78 in1008.5 mb - 0.00 in0.0 mm 0.00 in0.0 mm
12:30 AM 38.1°F3.4°C 25.0°F-3.9°C 59% 4.6 mph W7.4 kmh W 11.5 mph18.5 kmh 29.77 in1008.1 mb - 0.00 in0.0 mm 0.00 in0.0 mm
12:15 AM 38.3°F3.5°C 24.8°F-4.0°C 58% 3.5 mph NW5.6 kmh NW 8.1 mph13.0 kmh 29.77 in1008.1 mb - 0.00 in0.0 mm 0.00 in0.0 mm
12:00 AM 38.6°F3.7°C 24.7°F-4.1°C 57% 2.3 mph NW3.7 kmh NW 4.6 mph7.4 kmh 29.77 in1008.1 mb - 0.00 in0.0 mm 0.00 in0.0 mm